sensor_id;sensor_type;location;lat;lon;timestamp;P1;durP1;ratioP1;P2;durP2;ratioP2
41514;SDS011;27247;48.020;16.720;2023-01-16T00:01:52;1.80;;;0.87;;
41514;SDS011;27247;48.020;16.720;2023-01-16T00:06:05;1.55;;;0.90;;
41514;SDS011;27247;48.020;16.720;2023-01-16T00:10:15;0.70;;;0.65;;
41514;SDS011;27247;48.020;16.720;2023-01-16T00:14:28;0.90;;;0.75;;
41514;SDS011;27247;48.020;16.720;2023-01-16T00:18:39;1.77;;;0.93;;
41514;SDS011;27247;48.020;16.720;2023-01-16T00:22:51;1.40;;;0.80;;
41514;SDS011;27247;48.020;16.720;2023-01-16T00:27:01;2.80;;;1.10;;
41514;SDS011;27247;48.020;16.720;2023-01-16T00:31:12;2.28;;;1.08;;
41514;SDS011;27247;48.020;16.720;2023-01-16T00:35:22;1.27;;;0.82;;
41514;SDS011;27247;48.020;16.720;2023-01-16T00:39:33;3.80;;;0.80;;
41514;SDS011;27247;48.020;16.720;2023-01-16T00:43:44;1.48;;;1.00;;
41514;SDS011;27247;48.020;16.720;2023-01-16T00:47:54;2.00;;;1.20;;
41514;SDS011;27247;48.020;16.720;2023-01-16T00:52:05;1.25;;;1.15;;
41514;SDS011;27247;48.020;16.720;2023-01-16T00:56:15;2.75;;;1.10;;
41514;SDS011;27247;48.020;16.720;2023-01-16T01:00:25;1.50;;;0.70;;
41514;SDS011;27247;48.020;16.720;2023-01-16T01:04:36;0.65;;;0.50;;
41514;SDS011;27247;48.020;16.720;2023-01-16T01:08:46;0.90;;;0.70;;
41514;SDS011;27247;48.020;16.720;2023-01-16T01:12:57;1.98;;;0.80;;
41514;SDS011;27247;48.020;16.720;2023-01-16T01:17:07;1.25;;;0.70;;
41514;SDS011;27247;48.020;16.720;2023-01-16T01:21:17;2.90;;;1.20;;
41514;SDS011;27247;48.020;16.720;2023-01-16T01:25:28;1.20;;;0.60;;
41514;SDS011;27247;48.020;16.720;2023-01-16T01:29:38;1.10;;;0.82;;
41514;SDS011;27247;48.020;16.720;2023-01-16T01:33:48;1.10;;;1.00;;
41514;SDS011;27247;48.020;16.720;2023-01-16T01:37:59;1.08;;;0.85;;
41514;SDS011;27247;48.020;16.720;2023-01-16T01:42:10;1.63;;;0.85;;
41514;SDS011;27247;48.020;16.720;2023-01-16T01:46:40;1.55;;;1.10;;
41514;SDS011;27247;48.020;16.720;2023-01-16T01:50:58;0.75;;;0.75;;
41514;SDS011;27247;48.020;16.720;2023-01-16T01:55:11;5.85;;;3.20;;
41514;SDS011;27247;48.020;16.720;2023-01-16T01:59:25;0.70;;;0.47;;
41514;SDS011;27247;48.020;16.720;2023-01-16T02:03:40;1.63;;;0.50;;
41514;SDS011;27247;48.020;16.720;2023-01-16T02:07:54;0.60;;;0.60;;
41514;SDS011;27247;48.020;16.720;2023-01-16T02:12:12;1.45;;;0.60;;
41514;SDS011;27247;48.020;16.720;2023-01-16T02:16:24;1.45;;;0.63;;
41514;SDS011;27247;48.020;16.720;2023-01-16T02:38:30;0.60;;;0.60;;
41514;SDS011;27247;48.020;16.720;2023-01-16T02:56:31;2.08;;;0.60;;
41514;SDS011;27247;48.020;16.720;2023-01-16T03:00:52;2.85;;;0.82;;
41514;SDS011;27247;48.020;16.720;2023-01-16T03:05:05;1.92;;;1.08;;
41514;SDS011;27247;48.020;16.720;2023-01-16T03:09:37;4.55;;;0.80;;
41514;SDS011;27247;48.020;16.720;2023-01-16T03:18:35;2.85;;;0.75;;
41514;SDS011;27247;48.020;16.720;2023-01-16T03:27:20;2.30;;;1.20;;
41514;SDS011;27247;48.020;16.720;2023-01-16T03:36:06;0.82;;;0.55;;
41514;SDS011;27247;48.020;16.720;2023-01-16T03:40:22;1.52;;;0.65;;
41514;SDS011;27247;48.020;16.720;2023-01-16T03:44:41;1.40;;;0.52;;
41514;SDS011;27247;48.020;16.720;2023-01-16T03:49:09;2.63;;;0.70;;
41514;SDS011;27247;48.020;16.720;2023-01-16T03:53:25;0.93;;;0.60;;
41514;SDS011;27247;48.020;16.720;2023-01-16T03:57:58;1.15;;;0.75;;
41514;SDS011;27247;48.020;16.720;2023-01-16T04:02:17;1.00;;;0.75;;
41514;SDS011;27247;48.020;16.720;2023-01-16T04:06:49;2.23;;;0.70;;
41514;SDS011;27247;48.020;16.720;2023-01-16T04:11:04;1.02;;;0.82;;
41514;SDS011;27247;48.020;16.720;2023-01-16T04:15:15;0.70;;;0.50;;
41514;SDS011;27247;48.020;16.720;2023-01-16T04:19:27;1.38;;;0.80;;
41514;SDS011;27247;48.020;16.720;2023-01-16T04:23:40;3.83;;;1.10;;
41514;SDS011;27247;48.020;16.720;2023-01-16T04:27:51;2.60;;;1.20;;
41514;SDS011;27247;48.020;16.720;2023-01-16T04:32:02;2.97;;;1.00;;
41514;SDS011;27247;48.020;16.720;2023-01-16T04:36:12;2.58;;;0.93;;
41514;SDS011;27247;48.020;16.720;2023-01-16T04:40:23;0.80;;;0.50;;
41514;SDS011;27247;48.020;16.720;2023-01-16T04:44:33;1.27;;;0.70;;
41514;SDS011;27247;48.020;16.720;2023-01-16T04:48:44;1.67;;;0.50;;
41514;SDS011;27247;48.020;16.720;2023-01-16T04:52:54;4.63;;;1.10;;
41514;SDS011;27247;48.020;16.720;2023-01-16T04:57:04;4.67;;;1.60;;
41514;SDS011;27247;48.020;16.720;2023-01-16T05:01:15;1.25;;;1.00;;
41514;SDS011;27247;48.020;16.720;2023-01-16T05:05:27;1.08;;;0.80;;
41514;SDS011;27247;48.020;16.720;2023-01-16T05:09:37;1.80;;;1.00;;
41514;SDS011;27247;48.020;16.720;2023-01-16T05:13:47;1.50;;;1.00;;
41514;SDS011;27247;48.020;16.720;2023-01-16T05:17:57;1.67;;;0.95;;
41514;SDS011;27247;48.020;16.720;2023-01-16T05:22:08;2.28;;;0.90;;
41514;SDS011;27247;48.020;16.720;2023-01-16T05:26:18;3.78;;;1.50;;
41514;SDS011;27247;48.020;16.720;2023-01-16T05:30:32;4.32;;;1.70;;
41514;SDS011;27247;48.020;16.720;2023-01-16T05:34:42;1.75;;;0.80;;
41514;SDS011;27247;48.020;16.720;2023-01-16T05:38:53;2.85;;;0.70;;
41514;SDS011;27247;48.020;16.720;2023-01-16T05:43:04;2.40;;;0.68;;
41514;SDS011;27247;48.020;16.720;2023-01-16T05:47:14;3.70;;;1.10;;
41514;SDS011;27247;48.020;16.720;2023-01-16T05:51:24;1.53;;;0.60;;
41514;SDS011;27247;48.020;16.720;2023-01-16T05:55:42;1.25;;;0.80;;
41514;SDS011;27247;48.020;16.720;2023-01-16T05:59:54;0.95;;;0.70;;
41514;SDS011;27247;48.020;16.720;2023-01-16T06:04:05;0.75;;;0.50;;
41514;SDS011;27247;48.020;16.720;2023-01-16T06:08:15;1.13;;;0.32;;
41514;SDS011;27247;48.020;16.720;2023-01-16T06:12:25;1.00;;;0.30;;
41514;SDS011;27247;48.020;16.720;2023-01-16T06:16:36;3.05;;;0.40;;
41514;SDS011;27247;48.020;16.720;2023-01-16T06:20:46;0.57;;;0.40;;
41514;SDS011;27247;48.020;16.720;2023-01-16T06:24:57;1.10;;;0.40;;
41514;SDS011;27247;48.020;16.720;2023-01-16T06:29:08;0.67;;;0.47;;
41514;SDS011;27247;48.020;16.720;2023-01-16T06:33:19;0.82;;;0.30;;
41514;SDS011;27247;48.020;16.720;2023-01-16T06:37:29;2.50;;;0.20;;
41514;SDS011;27247;48.020;16.720;2023-01-16T06:41:39;1.58;;;0.30;;
41514;SDS011;27247;48.020;16.720;2023-01-16T06:45:50;0.52;;;0.28;;
41514;SDS011;27247;48.020;16.720;2023-01-16T06:50:00;0.70;;;0.20;;
41514;SDS011;27247;48.020;16.720;2023-01-16T06:54:11;0.40;;;0.37;;
41514;SDS011;27247;48.020;16.720;2023-01-16T06:58:21;1.05;;;0.30;;
41514;SDS011;27247;48.020;16.720;2023-01-16T07:02:31;3.43;;;0.77;;
41514;SDS011;27247;48.020;16.720;2023-01-16T07:06:42;0.17;;;0.17;;
41514;SDS011;27247;48.020;16.720;2023-01-16T07:10:53;1.80;;;0.40;;
41514;SDS011;27247;48.020;16.720;2023-01-16T07:15:08;4.72;;;0.60;;
41514;SDS011;27247;48.020;16.720;2023-01-16T07:19:37;0.50;;;0.50;;
41514;SDS011;27247;48.020;16.720;2023-01-16T07:24:07;2.45;;;0.60;;
41514;SDS011;27247;48.020;16.720;2023-01-16T07:28:20;3.28;;;1.42;;
41514;SDS011;27247;48.020;16.720;2023-01-16T07:32:31;2.92;;;1.67;;
41514;SDS011;27247;48.020;16.720;2023-01-16T07:36:41;3.53;;;1.42;;
41514;SDS011;27247;48.020;16.720;2023-01-16T07:40:52;4.95;;;2.60;;
41514;SDS011;27247;48.020;16.720;2023-01-16T07:45:02;5.03;;;2.23;;
41514;SDS011;27247;48.020;16.720;2023-01-16T07:49:13;4.82;;;2.08;;
41514;SDS011;27247;48.020;16.720;2023-01-16T07:53:24;2.60;;;1.30;;
41514;SDS011;27247;48.020;16.720;2023-01-16T07:57:36;1.02;;;0.93;;
41514;SDS011;27247;48.020;16.720;2023-01-16T08:01:47;0.85;;;0.65;;
41514;SDS011;27247;48.020;16.720;2023-01-16T08:06:00;2.08;;;0.60;;
41514;SDS011;27247;48.020;16.720;2023-01-16T08:10:12;0.82;;;0.80;;
41514;SDS011;27247;48.020;16.720;2023-01-16T08:14:22;1.90;;;0.50;;
41514;SDS011;27247;48.020;16.720;2023-01-16T08:18:33;1.83;;;1.02;;
41514;SDS011;27247;48.020;16.720;2023-01-16T08:22:43;1.67;;;0.77;;
41514;SDS011;27247;48.020;16.720;2023-01-16T08:26:55;3.38;;;1.35;;
41514;SDS011;27247;48.020;16.720;2023-01-16T08:31:07;2.33;;;1.42;;
41514;SDS011;27247;48.020;16.720;2023-01-16T08:35:23;2.80;;;1.35;;
41514;SDS011;27247;48.020;16.720;2023-01-16T08:39:34;4.45;;;1.55;;
41514;SDS011;27247;48.020;16.720;2023-01-16T08:43:47;4.18;;;1.50;;
41514;SDS011;27247;48.020;16.720;2023-01-16T08:48:21;4.95;;;2.38;;
41514;SDS011;27247;48.020;16.720;2023-01-16T08:52:55;4.45;;;2.30;;
41514;SDS011;27247;48.020;16.720;2023-01-16T08:57:05;6.05;;;2.92;;
41514;SDS011;27247;48.020;16.720;2023-01-16T09:01:15;3.95;;;2.00;;
41514;SDS011;27247;48.020;16.720;2023-01-16T09:05:27;4.15;;;1.70;;
41514;SDS011;27247;48.020;16.720;2023-01-16T09:09:38;4.25;;;1.60;;
41514;SDS011;27247;48.020;16.720;2023-01-16T09:13:50;3.53;;;1.42;;
41514;SDS011;27247;48.020;16.720;2023-01-16T09:18:01;1.88;;;1.40;;
41514;SDS011;27247;48.020;16.720;2023-01-16T09:22:11;1.80;;;1.52;;
41514;SDS011;27247;48.020;16.720;2023-01-16T09:26:21;1.42;;;0.95;;
41514;SDS011;27247;48.020;16.720;2023-01-16T09:30:32;2.15;;;0.93;;
41514;SDS011;27247;48.020;16.720;2023-01-16T09:34:42;4.82;;;1.27;;
41514;SDS011;27247;48.020;16.720;2023-01-16T09:38:52;4.00;;;1.25;;
41514;SDS011;27247;48.020;16.720;2023-01-16T09:43:14;3.05;;;1.42;;
41514;SDS011;27247;48.020;16.720;2023-01-16T09:47:46;2.88;;;1.42;;
41514;SDS011;27247;48.020;16.720;2023-01-16T09:52:02;3.28;;;1.30;;
41514;SDS011;27247;48.020;16.720;2023-01-16T09:56:35;4.78;;;1.50;;
41514;SDS011;27247;48.020;16.720;2023-01-16T10:01:11;2.65;;;1.65;;
41514;SDS011;27247;48.020;16.720;2023-01-16T10:05:27;3.92;;;1.98;;
41514;SDS011;27247;48.020;16.720;2023-01-16T10:09:54;2.63;;;1.73;;
41514;SDS011;27247;48.020;16.720;2023-01-16T10:23:33;4.82;;;2.38;;
41514;SDS011;27247;48.020;16.720;2023-01-16T10:27:52;7.25;;;3.60;;
41514;SDS011;27247;48.020;16.720;2023-01-16T10:36:35;5.15;;;2.88;;
41514;SDS011;27247;48.020;16.720;2023-01-16T10:40:51;5.05;;;3.00;;
41514;SDS011;27247;48.020;16.720;2023-01-16T10:49:43;7.30;;;3.67;;
41514;SDS011;27247;48.020;16.720;2023-01-16T10:53:54;5.20;;;3.75;;
41514;SDS011;27247;48.020;16.720;2023-01-16T10:58:06;6.38;;;3.13;;
41514;SDS011;27247;48.020;16.720;2023-01-16T11:02:29;8.93;;;3.17;;
41514;SDS011;27247;48.020;16.720;2023-01-16T11:06:42;3.50;;;2.88;;
41514;SDS011;27247;48.020;16.720;2023-01-16T11:10:53;5.32;;;3.03;;
41514;SDS011;27247;48.020;16.720;2023-01-16T11:15:04;4.60;;;3.13;;
41514;SDS011;27247;48.020;16.720;2023-01-16T11:19:42;4.28;;;2.30;;
41514;SDS011;27247;48.020;16.720;2023-01-16T11:24:04;4.40;;;2.90;;
41514;SDS011;27247;48.020;16.720;2023-01-16T11:28:28;5.18;;;3.72;;
41514;SDS011;27247;48.020;16.720;2023-01-16T11:32:40;3.78;;;2.85;;
41514;SDS011;27247;48.020;16.720;2023-01-16T11:36:58;4.97;;;3.38;;
41514;SDS011;27247;48.020;16.720;2023-01-16T11:41:12;4.18;;;3.13;;
41514;SDS011;27247;48.020;16.720;2023-01-16T11:45:28;7.35;;;3.58;;
41514;SDS011;27247;48.020;16.720;2023-01-16T11:49:57;8.38;;;4.53;;
41514;SDS011;27247;48.020;16.720;2023-01-16T11:54:15;5.28;;;3.60;;
41514;SDS011;27247;48.020;16.720;2023-01-16T11:58:35;6.65;;;3.60;;
41514;SDS011;27247;48.020;16.720;2023-01-16T12:03:37;4.35;;;3.42;;
41514;SDS011;27247;48.020;16.720;2023-01-16T12:07:53;9.68;;;4.93;;
41514;SDS011;27247;48.020;16.720;2023-01-16T12:12:16;3.83;;;2.97;;
41514;SDS011;27247;48.020;16.720;2023-01-16T12:26:09;4.43;;;3.22;;
41514;SDS011;27247;48.020;16.720;2023-01-16T12:44:13;6.10;;;3.55;;
41514;SDS011;27247;48.020;16.720;2023-01-16T12:48:53;7.43;;;3.70;;
41514;SDS011;27247;48.020;16.720;2023-01-16T12:58:03;5.10;;;3.20;;
41514;SDS011;27247;48.020;16.720;2023-01-16T13:02:33;6.35;;;4.05;;
41514;SDS011;27247;48.020;16.720;2023-01-16T13:07:00;5.65;;;3.60;;
41514;SDS011;27247;48.020;16.720;2023-01-16T13:11:15;7.63;;;4.28;;
41514;SDS011;27247;48.020;16.720;2023-01-16T13:20:37;5.65;;;2.88;;
41514;SDS011;27247;48.020;16.720;2023-01-16T13:24:50;8.93;;;3.15;;
41514;SDS011;27247;48.020;16.720;2023-01-16T13:29:10;4.05;;;2.33;;
41514;SDS011;27247;48.020;16.720;2023-01-16T13:33:35;2.35;;;1.70;;
41514;SDS011;27247;48.020;16.720;2023-01-16T13:42:30;7.43;;;3.33;;
41514;SDS011;27247;48.020;16.720;2023-01-16T13:46:43;10.23;;;3.75;;
41514;SDS011;27247;48.020;16.720;2023-01-16T13:51:02;9.57;;;3.50;;
41514;SDS011;27247;48.020;16.720;2023-01-16T13:59:38;2.97;;;1.88;;
41514;SDS011;27247;48.020;16.720;2023-01-16T14:08:48;6.50;;;2.78;;
41514;SDS011;27247;48.020;16.720;2023-01-16T14:22:44;8.73;;;3.92;;
41514;SDS011;27247;48.020;16.720;2023-01-16T14:27:14;5.88;;;2.92;;
41514;SDS011;27247;48.020;16.720;2023-01-16T14:31:37;7.00;;;3.47;;
41514;SDS011;27247;48.020;16.720;2023-01-16T14:35:51;9.20;;;4.20;;
41514;SDS011;27247;48.020;16.720;2023-01-16T14:44:19;5.45;;;3.00;;
41514;SDS011;27247;48.020;16.720;2023-01-16T14:48:49;7.97;;;4.65;;
41514;SDS011;27247;48.020;16.720;2023-01-16T14:57:48;8.70;;;4.38;;
41514;SDS011;27247;48.020;16.720;2023-01-16T15:06:31;7.80;;;4.30;;
41514;SDS011;27247;48.020;16.720;2023-01-16T15:10:46;11.60;;;4.80;;
41514;SDS011;27247;48.020;16.720;2023-01-16T15:14:59;11.40;;;6.75;;
41514;SDS011;27247;48.020;16.720;2023-01-16T15:19:16;9.48;;;5.32;;
41514;SDS011;27247;48.020;16.720;2023-01-16T15:23:46;9.07;;;5.50;;
41514;SDS011;27247;48.020;16.720;2023-01-16T15:28:01;12.40;;;7.22;;
41514;SDS011;27247;48.020;16.720;2023-01-16T15:32:17;12.82;;;6.82;;
41514;SDS011;27247;48.020;16.720;2023-01-16T15:36:40;16.98;;;7.93;;
41514;SDS011;27247;48.020;16.720;2023-01-16T15:40:53;14.60;;;7.00;;
41514;SDS011;27247;48.020;16.720;2023-01-16T15:54:12;18.17;;;8.02;;
41514;SDS011;27247;48.020;16.720;2023-01-16T15:58:24;17.63;;;9.15;;
41514;SDS011;27247;48.020;16.720;2023-01-16T16:02:40;17.35;;;9.55;;
41514;SDS011;27247;48.020;16.720;2023-01-16T16:06:52;18.50;;;10.75;;
41514;SDS011;27247;48.020;16.720;2023-01-16T16:11:03;24.45;;;10.55;;
41514;SDS011;27247;48.020;16.720;2023-01-16T16:15:34;20.50;;;10.05;;
41514;SDS011;27247;48.020;16.720;2023-01-16T16:24:38;21.40;;;10.63;;
41514;SDS011;27247;48.020;16.720;2023-01-16T16:28:49;26.83;;;12.70;;
41514;SDS011;27247;48.020;16.720;2023-01-16T16:33:00;26.02;;;13.05;;
41514;SDS011;27247;48.020;16.720;2023-01-16T16:37:11;23.90;;;13.02;;
41514;SDS011;27247;48.020;16.720;2023-01-16T16:50:34;12.93;;;8.10;;
41514;SDS011;27247;48.020;16.720;2023-01-16T16:54:51;12.25;;;6.32;;
41514;SDS011;27247;48.020;16.720;2023-01-16T16:59:03;11.80;;;7.20;;
41514;SDS011;27247;48.020;16.720;2023-01-16T17:03:18;12.73;;;7.00;;
41514;SDS011;27247;48.020;16.720;2023-01-16T17:07:33;12.02;;;6.65;;
41514;SDS011;27247;48.020;16.720;2023-01-16T17:11:44;12.90;;;8.38;;
41514;SDS011;27247;48.020;16.720;2023-01-16T17:15:55;14.82;;;9.00;;
41514;SDS011;27247;48.020;16.720;2023-01-16T17:20:17;14.77;;;7.72;;
41514;SDS011;27247;48.020;16.720;2023-01-16T17:24:29;15.85;;;8.73;;
41514;SDS011;27247;48.020;16.720;2023-01-16T17:28:41;16.23;;;8.15;;
41514;SDS011;27247;48.020;16.720;2023-01-16T17:32:56;15.52;;;9.77;;
41514;SDS011;27247;48.020;16.720;2023-01-16T17:37:09;14.88;;;8.38;;
41514;SDS011;27247;48.020;16.720;2023-01-16T17:41:25;16.95;;;8.95;;
41514;SDS011;27247;48.020;16.720;2023-01-16T17:45:51;16.23;;;9.35;;
41514;SDS011;27247;48.020;16.720;2023-01-16T17:50:03;16.30;;;9.40;;
41514;SDS011;27247;48.020;16.720;2023-01-16T17:59:01;25.07;;;12.20;;
41514;SDS011;27247;48.020;16.720;2023-01-16T18:03:17;17.83;;;9.63;;
41514;SDS011;27247;48.020;16.720;2023-01-16T18:07:28;21.45;;;11.07;;
41514;SDS011;27247;48.020;16.720;2023-01-16T18:11:39;17.05;;;9.32;;
41514;SDS011;27247;48.020;16.720;2023-01-16T18:16:12;15.98;;;8.73;;
41514;SDS011;27247;48.020;16.720;2023-01-16T18:20:43;18.98;;;9.90;;
41514;SDS011;27247;48.020;16.720;2023-01-16T18:24:53;18.33;;;10.65;;
41514;SDS011;27247;48.020;16.720;2023-01-16T18:29:04;17.75;;;9.10;;
41514;SDS011;27247;48.020;16.720;2023-01-16T18:33:15;14.65;;;8.93;;
41514;SDS011;27247;48.020;16.720;2023-01-16T18:41:39;16.23;;;8.55;;
41514;SDS011;27247;48.020;16.720;2023-01-16T18:46:13;13.50;;;7.25;;
41514;SDS011;27247;48.020;16.720;2023-01-16T18:50:45;8.68;;;5.95;;
41514;SDS011;27247;48.020;16.720;2023-01-16T18:55:16;8.48;;;5.43;;
41514;SDS011;27247;48.020;16.720;2023-01-16T18:59:46;7.30;;;4.38;;
41514;SDS011;27247;48.020;16.720;2023-01-16T19:04:15;8.52;;;4.03;;
41514;SDS011;27247;48.020;16.720;2023-01-16T19:08:25;10.45;;;5.75;;
41514;SDS011;27247;48.020;16.720;2023-01-16T19:12:36;7.35;;;4.22;;
41514;SDS011;27247;48.020;16.720;2023-01-16T19:16:47;7.30;;;4.43;;
41514;SDS011;27247;48.020;16.720;2023-01-16T19:21:03;5.30;;;3.35;;
41514;SDS011;27247;48.020;16.720;2023-01-16T19:25:14;5.80;;;3.47;;
41514;SDS011;27247;48.020;16.720;2023-01-16T19:29:25;5.35;;;3.42;;
41514;SDS011;27247;48.020;16.720;2023-01-16T19:33:37;8.27;;;4.65;;
41514;SDS011;27247;48.020;16.720;2023-01-16T19:37:48;10.25;;;6.25;;
41514;SDS011;27247;48.020;16.720;2023-01-16T19:41:59;24.50;;;10.15;;
41514;SDS011;27247;48.020;16.720;2023-01-16T19:46:29;37.95;;;16.23;;
41514;SDS011;27247;48.020;16.720;2023-01-16T19:50:54;11.25;;;5.90;;
41514;SDS011;27247;48.020;16.720;2023-01-16T19:55:05;12.40;;;7.13;;
41514;SDS011;27247;48.020;16.720;2023-01-16T19:59:16;13.75;;;7.13;;
41514;SDS011;27247;48.020;16.720;2023-01-16T20:03:29;13.63;;;7.00;;
41514;SDS011;27247;48.020;16.720;2023-01-16T20:07:40;11.98;;;5.35;;
41514;SDS011;27247;48.020;16.720;2023-01-16T20:11:50;8.55;;;4.10;;
41514;SDS011;27247;48.020;16.720;2023-01-16T20:16:19;13.25;;;6.90;;
41514;SDS011;27247;48.020;16.720;2023-01-16T20:20:31;10.73;;;6.68;;
41514;SDS011;27247;48.020;16.720;2023-01-16T20:24:41;6.53;;;4.32;;
41514;SDS011;27247;48.020;16.720;2023-01-16T20:28:52;7.30;;;4.00;;
41514;SDS011;27247;48.020;16.720;2023-01-16T20:33:03;5.90;;;3.22;;
41514;SDS011;27247;48.020;16.720;2023-01-16T20:37:14;15.02;;;6.93;;
41514;SDS011;27247;48.020;16.720;2023-01-16T20:41:24;8.38;;;4.88;;
41514;SDS011;27247;48.020;16.720;2023-01-16T20:45:53;11.02;;;5.88;;
41514;SDS011;27247;48.020;16.720;2023-01-16T20:50:08;5.88;;;4.25;;
41514;SDS011;27247;48.020;16.720;2023-01-16T20:54:19;9.25;;;5.35;;
41514;SDS011;27247;48.020;16.720;2023-01-16T20:58:31;10.52;;;5.75;;
41514;SDS011;27247;48.020;16.720;2023-01-16T21:02:42;9.52;;;5.30;;
41514;SDS011;27247;48.020;16.720;2023-01-16T21:06:53;8.68;;;4.57;;
41514;SDS011;27247;48.020;16.720;2023-01-16T21:11:04;9.70;;;4.70;;
41514;SDS011;27247;48.020;16.720;2023-01-16T21:15:34;18.27;;;10.18;;
41514;SDS011;27247;48.020;16.720;2023-01-16T21:19:44;8.68;;;4.05;;
41514;SDS011;27247;48.020;16.720;2023-01-16T21:28:25;11.73;;;5.80;;
41514;SDS011;27247;48.020;16.720;2023-01-16T21:32:35;9.02;;;5.32;;
41514;SDS011;27247;48.020;16.720;2023-01-16T21:36:46;8.50;;;5.03;;
41514;SDS011;27247;48.020;16.720;2023-01-16T21:41:06;13.23;;;5.80;;
41514;SDS011;27247;48.020;16.720;2023-01-16T21:45:17;9.93;;;5.68;;
41514;SDS011;27247;48.020;16.720;2023-01-16T21:49:46;11.05;;;5.88;;
41514;SDS011;27247;48.020;16.720;2023-01-16T21:53:56;11.35;;;6.32;;
41514;SDS011;27247;48.020;16.720;2023-01-16T21:58:07;14.18;;;7.18;;
41514;SDS011;27247;48.020;16.720;2023-01-16T22:02:18;10.52;;;6.07;;
41514;SDS011;27247;48.020;16.720;2023-01-16T22:06:28;13.57;;;7.50;;
41514;SDS011;27247;48.020;16.720;2023-01-16T22:10:39;12.67;;;6.60;;
41514;SDS011;27247;48.020;16.720;2023-01-16T22:15:09;11.65;;;5.75;;
41514;SDS011;27247;48.020;16.720;2023-01-16T22:19:38;12.88;;;6.28;;
41514;SDS011;27247;48.020;16.720;2023-01-16T22:24:03;11.57;;;5.95;;
41514;SDS011;27247;48.020;16.720;2023-01-16T22:28:14;8.93;;;6.15;;
41514;SDS011;27247;48.020;16.720;2023-01-16T22:32:25;12.73;;;6.30;;
41514;SDS011;27247;48.020;16.720;2023-01-16T22:36:36;12.88;;;6.72;;
41514;SDS011;27247;48.020;16.720;2023-01-16T22:40:46;11.10;;;6.70;;
41514;SDS011;27247;48.020;16.720;2023-01-16T22:44:57;13.70;;;5.82;;
41514;SDS011;27247;48.020;16.720;2023-01-16T22:49:26;12.68;;;6.55;;
41514;SDS011;27247;48.020;16.720;2023-01-16T22:53:37;11.30;;;6.85;;
41514;SDS011;27247;48.020;16.720;2023-01-16T22:57:48;14.68;;;7.38;;
41514;SDS011;27247;48.020;16.720;2023-01-16T23:01:59;12.10;;;6.97;;
41514;SDS011;27247;48.020;16.720;2023-01-16T23:06:09;15.75;;;8.43;;
41514;SDS011;27247;48.020;16.720;2023-01-16T23:10:20;15.10;;;7.80;;
41514;SDS011;27247;48.020;16.720;2023-01-16T23:14:31;12.90;;;6.93;;
41514;SDS011;27247;48.020;16.720;2023-01-16T23:18:41;14.02;;;7.78;;
41514;SDS011;27247;48.020;16.720;2023-01-16T23:22:52;13.43;;;8.15;;
41514;SDS011;27247;48.020;16.720;2023-01-16T23:27:02;16.33;;;8.52;;
41514;SDS011;27247;48.020;16.720;2023-01-16T23:31:12;17.20;;;9.43;;
41514;SDS011;27247;48.020;16.720;2023-01-16T23:35:23;16.17;;;8.18;;
41514;SDS011;27247;48.020;16.720;2023-01-16T23:39:34;17.02;;;8.73;;
41514;SDS011;27247;48.020;16.720;2023-01-16T23:43:44;19.33;;;9.93;;
41514;SDS011;27247;48.020;16.720;2023-01-16T23:48:14;17.83;;;9.02;;
41514;SDS011;27247;48.020;16.720;2023-01-16T23:52:25;17.83;;;10.00;;
41514;SDS011;27247;48.020;16.720;2023-01-16T23:56:40;22.42;;;9.13;;
